createdAt,value
2018-12-08T00:00:08.223Z,0.00
2018-12-08T00:01:08.125Z,0.00
2018-12-08T00:02:08.012Z,0.00
2018-12-08T00:03:07.910Z,0.00
2018-12-08T00:04:07.812Z,0.00
2018-12-08T00:05:07.713Z,0.00
2018-12-08T00:06:07.601Z,0.00
2018-12-08T00:07:07.505Z,0.00
2018-12-08T00:08:07.390Z,0.00
2018-12-08T00:09:07.402Z,0.00
2018-12-08T00:10:07.190Z,0.00
2018-12-08T00:11:07.079Z,0.00
2018-12-08T00:12:06.985Z,0.00
2018-12-08T00:13:06.880Z,0.00
2018-12-08T00:14:06.768Z,0.00
2018-12-08T00:15:06.668Z,0.00
2018-12-08T00:16:06.568Z,0.00
2018-12-08T00:17:06.457Z,0.00
2018-12-08T00:18:06.358Z,0.00
2018-12-08T00:19:06.259Z,0.00
2018-12-08T00:20:06.151Z,0.00
2018-12-08T00:21:06.046Z,0.00
2018-12-08T00:22:05.947Z,0.00
2018-12-08T00:23:06.086Z,0.00
2018-12-08T00:24:05.735Z,0.00
2018-12-08T00:25:05.627Z,0.00
2018-12-08T00:26:05.524Z,0.00
2018-12-08T00:27:05.427Z,0.00
2018-12-08T00:28:05.318Z,0.00
2018-12-08T00:29:05.217Z,0.00
2018-12-08T00:30:05.117Z,0.00
2018-12-08T00:31:05.002Z,0.00
2018-12-08T00:32:04.903Z,0.00
2018-12-08T00:33:04.802Z,0.00
2018-12-08T00:34:04.693Z,0.00
2018-12-08T00:35:04.591Z,0.00
2018-12-08T00:36:04.480Z,0.00
2018-12-08T00:37:04.381Z,0.00
2018-12-08T00:38:04.280Z,0.00
2018-12-08T00:39:04.170Z,0.00
2018-12-08T00:40:04.070Z,0.00
2018-12-08T00:41:03.971Z,0.00
2018-12-08T00:42:03.871Z,0.00
2018-12-08T00:43:03.771Z,0.00
2018-12-08T00:44:03.647Z,0.00
2018-12-08T00:45:03.547Z,0.00
2018-12-08T00:46:03.448Z,0.00
2018-12-08T00:47:03.336Z,0.00
2018-12-08T00:48:03.241Z,0.00
2018-12-08T00:49:03.138Z,0.00
2018-12-08T00:50:03.025Z,0.00
2018-12-08T00:51:02.925Z,0.00
2018-12-08T00:52:02.926Z,0.00
2018-12-08T00:53:02.728Z,0.00
2018-12-08T00:54:02.603Z,0.00
2018-12-08T00:55:02.503Z,0.00
2018-12-08T00:56:02.404Z,0.00
2018-12-08T00:57:02.291Z,0.00
2018-12-08T00:58:02.192Z,0.00
2018-12-08T00:59:02.208Z,0.00
2018-12-08T01:00:01.982Z,0.00
2018-12-08T01:01:01.884Z,0.00
2018-12-08T01:02:01.769Z,0.00
2018-12-08T01:03:01.669Z,0.00
2018-12-08T01:04:01.558Z,0.00
2018-12-08T01:05:01.459Z,0.00
2018-12-08T01:06:01.363Z,0.00
2018-12-08T01:07:01.250Z,0.00
2018-12-08T01:08:01.149Z,0.00
2018-12-08T01:09:01.039Z,0.00
2018-12-08T01:10:00.937Z,0.00
2018-12-08T01:11:00.823Z,0.00
2018-12-08T01:12:00.726Z,0.00
2018-12-08T01:13:00.614Z,0.00
2018-12-08T01:14:00.514Z,0.00
2018-12-08T01:15:00.415Z,0.00
2018-12-08T01:16:00.317Z,0.00
2018-12-08T01:17:00.216Z,0.00
2018-12-08T01:18:00.092Z,0.00
2018-12-08T01:18:59.991Z,0.00
2018-12-08T01:19:59.879Z,0.00
2018-12-08T01:20:59.779Z,0.00
2018-12-08T01:21:59.668Z,0.00
2018-12-08T01:22:59.569Z,0.00
2018-12-08T01:23:59.469Z,0.00
2018-12-08T01:24:59.357Z,0.00
2018-12-08T01:25:59.257Z,0.00
2018-12-08T01:26:59.149Z,0.00
2018-12-08T01:27:59.050Z,0.00
2018-12-08T01:28:58.947Z,0.00
2018-12-08T01:29:58.849Z,0.00
2018-12-08T01:30:58.748Z,0.00
2018-12-08T01:31:58.625Z,0.00
2018-12-08T01:32:58.524Z,0.00
2018-12-08T01:33:58.413Z,0.00
2018-12-08T01:34:58.313Z,0.00
2018-12-08T01:35:58.205Z,0.00
2018-12-08T01:36:58.105Z,0.00
2018-12-08T01:37:57.996Z,0.00
2018-12-08T01:38:57.894Z,0.00
2018-12-08T01:39:57.807Z,0.00
2018-12-08T01:40:57.682Z,0.00
2018-12-08T01:41:57.583Z,0.00
2018-12-08T01:42:57.470Z,0.00
2018-12-08T01:43:57.371Z,0.00
2018-12-08T01:44:57.260Z,0.00
2018-12-08T01:45:57.161Z,0.00
2018-12-08T01:46:57.063Z,0.00
2018-12-08T01:47:56.949Z,0.00
2018-12-08T01:48:56.849Z,0.00
2018-12-08T01:49:56.737Z,0.00
2018-12-08T01:50:56.638Z,0.00
2018-12-08T01:51:56.539Z,0.00
2018-12-08T01:52:56.439Z,0.00
2018-12-08T01:53:56.317Z,0.00
2018-12-08T01:54:56.215Z,0.00
2018-12-08T01:55:56.116Z,0.00
2018-12-08T01:56:56.003Z,0.00
2018-12-08T01:57:56.153Z,0.00
2018-12-08T01:58:55.792Z,0.00
2018-12-08T01:59:55.693Z,0.00
2018-12-08T02:00:55.582Z,0.00
2018-12-08T02:01:55.481Z,0.00
2018-12-08T02:02:55.381Z,0.00
2018-12-08T02:03:55.273Z,0.00
2018-12-08T02:04:55.170Z,0.00
2018-12-08T02:05:55.058Z,0.00
2018-12-08T02:06:54.959Z,0.00
2018-12-08T02:07:54.847Z,0.00
2018-12-08T02:08:54.749Z,0.00
2018-12-08T02:09:54.643Z,0.00
2018-12-08T02:10:54.536Z,0.00
2018-12-08T02:11:54.437Z,0.00
2018-12-08T02:12:54.326Z,0.00
2018-12-08T02:13:54.226Z,0.00
2018-12-08T02:14:54.113Z,0.00
2018-12-08T02:15:54.014Z,0.00
2018-12-08T02:16:53.903Z,0.00
2018-12-08T02:17:53.803Z,0.00
2018-12-08T02:18:53.703Z,0.00
2018-12-08T02:19:53.591Z,0.00
2018-12-08T02:20:53.492Z,0.00
2018-12-08T02:21:53.380Z,0.00
2018-12-08T02:22:53.283Z,0.00
2018-12-08T02:23:53.168Z,0.00
2018-12-08T02:24:53.068Z,0.00
2018-12-08T02:25:52.957Z,0.00
2018-12-08T02:26:52.857Z,0.00
2018-12-08T02:27:52.757Z,0.00
2018-12-08T02:28:52.645Z,0.00
2018-12-08T02:29:52.545Z,0.00
2018-12-08T02:30:52.435Z,0.00
2018-12-08T02:31:52.336Z,0.00
2018-12-08T02:32:52.224Z,0.00
2018-12-08T02:33:52.125Z,0.00
2018-12-08T02:34:52.035Z,0.00
2018-12-08T02:35:51.912Z,0.00
2018-12-08T02:36:51.814Z,0.00
2018-12-08T02:37:52.000Z,0.00
2018-12-08T02:38:51.601Z,0.00
2018-12-08T02:39:51.489Z,0.00
2018-12-08T02:40:51.391Z,0.00
2018-12-08T02:41:51.279Z,0.00
2018-12-08T02:42:51.183Z,0.00
2018-12-08T02:43:51.077Z,0.00
2018-12-08T02:44:50.967Z,0.00
2018-12-08T02:45:50.866Z,0.00
2018-12-08T02:46:50.756Z,0.00
2018-12-08T02:47:50.657Z,0.00
2018-12-08T02:48:50.545Z,0.00
2018-12-08T02:49:50.448Z,0.00
2018-12-08T02:50:50.331Z,0.00
2018-12-08T02:51:50.232Z,0.00
2018-12-08T02:52:50.123Z,0.00
2018-12-08T02:53:50.024Z,0.00
2018-12-08T02:54:49.922Z,0.00
2018-12-08T02:55:49.810Z,0.00
2018-12-08T02:56:49.713Z,0.00
2018-12-08T02:57:49.604Z,0.00
2018-12-08T02:58:49.500Z,0.00
2018-12-08T02:59:49.386Z,0.00
2018-12-08T03:00:49.291Z,0.00
2018-12-08T03:01:49.176Z,0.00
2018-12-08T03:02:49.076Z,0.00
2018-12-08T03:03:48.979Z,0.00
2018-12-08T03:04:48.864Z,0.00
2018-12-08T03:05:48.765Z,0.00
2018-12-08T03:06:48.653Z,0.00
2018-12-08T03:07:48.555Z,0.00
2018-12-08T03:08:48.446Z,0.00
2018-12-08T03:09:48.341Z,0.00
2018-12-08T03:10:48.242Z,0.00
2018-12-08T03:11:48.128Z,0.00
2018-12-08T03:12:48.031Z,0.00
2018-12-08T03:13:47.919Z,0.00
2018-12-08T03:14:47.822Z,0.00
2018-12-08T03:15:47.709Z,0.00
2018-12-08T03:16:47.609Z,0.00
2018-12-08T03:17:47.498Z,0.00
2018-12-08T03:18:47.396Z,0.00
2018-12-08T03:19:47.297Z,0.00
2018-12-08T03:20:47.186Z,0.00
2018-12-08T03:21:47.089Z,0.00
2018-12-08T03:22:46.975Z,0.00
2018-12-08T03:23:46.874Z,0.00
2018-12-08T03:24:46.773Z,0.00
2018-12-08T03:25:46.663Z,0.00
2018-12-08T03:26:46.550Z,0.00
2018-12-08T03:27:46.453Z,0.00
2018-12-08T03:28:46.352Z,0.00
2018-12-08T03:29:46.243Z,0.00
2018-12-08T03:30:46.141Z,0.00
2018-12-08T03:31:46.029Z,0.00
2018-12-08T03:32:45.935Z,0.00
2018-12-08T03:33:45.818Z,0.00
2018-12-08T03:34:45.720Z,0.00
2018-12-08T03:35:45.606Z,0.00
2018-12-08T03:36:45.507Z,0.00
2018-12-08T03:37:45.395Z,0.00
2018-12-08T03:38:45.299Z,0.00
2018-12-08T03:39:45.185Z,0.00
2018-12-08T03:40:45.085Z,0.00
2018-12-08T03:41:44.988Z,0.00
2018-12-08T03:42:44.874Z,0.00
2018-12-08T03:43:44.775Z,0.00
2018-12-08T03:44:44.662Z,0.00
2018-12-08T03:45:44.562Z,0.00
2018-12-08T03:46:44.449Z,0.00
2018-12-08T03:47:44.352Z,0.00
2018-12-08T03:48:44.241Z,0.00
2018-12-08T03:49:44.142Z,0.00
2018-12-08T03:50:44.030Z,0.00
2018-12-08T03:51:43.929Z,0.00
2018-12-08T03:52:43.815Z,0.00
2018-12-08T03:53:43.723Z,0.00
2018-12-08T03:54:43.605Z,0.00
2018-12-08T03:55:44.961Z,0.00
2018-12-08T03:56:43.393Z,0.00
2018-12-08T03:57:43.298Z,0.00
2018-12-08T03:58:43.182Z,0.00
2018-12-08T03:59:43.085Z,0.00
2018-12-08T04:00:42.971Z,0.00
2018-12-08T04:01:42.872Z,0.00
2018-12-08T04:02:43.010Z,0.00
2018-12-08T04:03:42.664Z,0.00
2018-12-08T04:04:42.561Z,0.00
2018-12-08T04:05:42.447Z,0.00
2018-12-08T04:06:42.349Z,0.00
2018-12-08T04:07:42.236Z,0.00
2018-12-08T04:08:42.147Z,0.00
2018-12-08T04:09:42.037Z,0.00
2018-12-08T04:10:41.938Z,0.00
2018-12-08T04:11:41.814Z,0.00
2018-12-08T04:12:41.714Z,0.00
2018-12-08T04:13:41.606Z,0.00
2018-12-08T04:14:41.502Z,0.00
2018-12-08T04:15:41.392Z,0.00
2018-12-08T04:16:41.290Z,0.00
2018-12-08T04:17:41.179Z,0.00
2018-12-08T04:18:41.079Z,0.00
2018-12-08T04:19:40.970Z,0.00
2018-12-08T04:20:40.857Z,0.00
2018-12-08T04:21:40.755Z,0.00
2018-12-08T04:22:40.645Z,0.00
2018-12-08T04:23:40.545Z,0.00
2018-12-08T04:24:40.434Z,0.00
2018-12-08T04:25:40.333Z,0.00
2018-12-08T04:26:40.234Z,0.00
2018-12-08T04:27:40.123Z,0.00
2018-12-08T04:28:40.013Z,0.00
2018-12-08T04:29:39.912Z,0.00
2018-12-08T04:30:39.800Z,0.00
2018-12-08T04:31:39.700Z,0.00
2018-12-08T04:32:39.838Z,0.00
2018-12-08T04:33:39.487Z,0.00
2018-12-08T04:34:39.377Z,0.00
2018-12-08T04:35:39.276Z,0.00
2018-12-08T04:36:39.166Z,0.00
2018-12-08T04:37:39.067Z,0.00
2018-12-08T04:38:38.955Z,0.00
2018-12-08T04:39:38.859Z,0.00
2018-12-08T04:40:38.766Z,0.00
2018-12-08T04:41:38.641Z,0.00
2018-12-08T04:42:38.792Z,0.00
2018-12-08T04:43:38.431Z,0.00
2018-12-08T04:44:38.331Z,0.00
2018-12-08T04:45:38.219Z,0.00
2018-12-08T04:46:38.120Z,0.00
2018-12-08T04:47:38.009Z,0.00
2018-12-08T04:48:37.910Z,0.00
2018-12-08T04:49:37.797Z,0.00
2018-12-08T04:50:37.696Z,0.00
2018-12-08T04:51:37.585Z,0.00
2018-12-08T04:52:37.490Z,0.00
2018-12-08T04:53:37.374Z,0.00
2018-12-08T04:54:37.280Z,0.00
2018-12-08T04:55:37.165Z,0.00
2018-12-08T04:56:37.064Z,0.00
2018-12-08T04:57:36.950Z,0.00
2018-12-08T04:58:36.851Z,0.00
2018-12-08T04:59:36.743Z,0.00
2018-12-08T05:00:36.640Z,0.00
2018-12-08T05:01:36.530Z,0.00
2018-12-08T05:02:36.418Z,0.00
2018-12-08T05:03:36.317Z,0.00
2018-12-08T05:04:36.207Z,0.00
2018-12-08T05:05:36.105Z,0.00
2018-12-08T05:06:35.994Z,0.00
2018-12-08T05:07:35.894Z,0.00
2018-12-08T05:08:35.782Z,0.00
2018-12-08T05:09:35.682Z,0.00
2018-12-08T05:10:35.572Z,0.00
2018-12-08T05:11:35.471Z,0.00
2018-12-08T05:12:35.360Z,0.00
2018-12-08T05:13:35.260Z,0.00
2018-12-08T05:14:35.148Z,0.00
2018-12-08T05:15:35.049Z,0.00
2018-12-08T05:16:34.937Z,0.00
2018-12-08T05:17:34.837Z,0.00
2018-12-08T05:18:34.727Z,0.00
2018-12-08T05:19:34.627Z,0.00
2018-12-08T05:20:34.514Z,0.00
2018-12-08T05:21:34.414Z,0.00
2018-12-08T05:22:34.303Z,0.00
2018-12-08T05:23:34.203Z,0.00
2018-12-08T05:24:34.105Z,0.00
2018-12-08T05:25:33.980Z,0.00
2018-12-08T05:26:33.884Z,0.00
2018-12-08T05:27:33.769Z,0.00
2018-12-08T05:28:33.670Z,0.00
2018-12-08T05:29:33.558Z,0.00
2018-12-08T05:30:33.458Z,0.00
2018-12-08T05:31:33.347Z,0.00
2018-12-08T05:32:33.245Z,0.00
2018-12-08T05:33:33.135Z,0.00
2018-12-08T05:34:33.035Z,0.00
2018-12-08T05:35:32.927Z,0.00
2018-12-08T05:36:32.836Z,0.00
2018-12-08T05:37:32.712Z,0.00
2018-12-08T05:38:32.613Z,0.00
2018-12-08T05:39:32.501Z,0.00
2018-12-08T05:40:32.401Z,0.00
2018-12-08T05:41:32.289Z,0.00
2018-12-08T05:42:32.190Z,0.00
2018-12-08T05:43:32.078Z,0.00
2018-12-08T05:44:31.978Z,0.00
2018-12-08T05:45:31.867Z,0.00
2018-12-08T05:46:31.767Z,0.00
2018-12-08T05:47:31.655Z,0.00
2018-12-08T05:48:31.555Z,0.00
2018-12-08T05:49:31.444Z,0.00
2018-12-08T05:50:31.333Z,0.00
2018-12-08T05:51:31.231Z,0.00
2018-12-08T05:52:31.123Z,0.00
2018-12-08T05:53:31.022Z,0.00
2018-12-08T05:54:30.909Z,0.00
2018-12-08T05:55:30.809Z,0.00
2018-12-08T05:56:30.698Z,0.00
2018-12-08T05:57:30.849Z,0.00
2018-12-08T05:58:30.486Z,0.00
2018-12-08T05:59:30.387Z,0.00
2018-12-08T06:00:30.275Z,0.00
2018-12-08T06:01:30.176Z,0.00
2018-12-08T06:02:30.063Z,0.00
2018-12-08T06:03:29.964Z,0.00
2018-12-08T06:04:29.853Z,0.00
2018-12-08T06:05:29.741Z,0.00
2018-12-08T06:06:29.641Z,0.00
2018-12-08T06:07:29.530Z,0.00
2018-12-08T06:08:29.430Z,0.00
2018-12-08T06:09:29.319Z,0.00
2018-12-08T06:10:29.271Z,0.00
2018-12-08T06:11:29.110Z,0.00
2018-12-08T06:12:29.007Z,0.00
2018-12-08T06:13:28.894Z,0.00
2018-12-08T06:14:28.795Z,0.00
2018-12-08T06:15:28.684Z,0.00
2018-12-08T06:16:28.585Z,0.00
2018-12-08T06:17:28.475Z,0.00
2018-12-08T06:18:28.468Z,0.00
2018-12-08T06:19:28.261Z,0.00
2018-12-08T06:20:28.149Z,0.00
2018-12-08T06:21:28.049Z,0.00
2018-12-08T06:22:27.938Z,0.00
2018-12-08T06:23:27.839Z,0.00
2018-12-08T06:24:27.726Z,0.00
2018-12-08T06:25:27.626Z,0.00
2018-12-08T06:26:27.516Z,0.00
2018-12-08T06:27:27.416Z,0.00
2018-12-08T06:28:27.303Z,4.00
2018-12-08T06:29:27.203Z,4.00
2018-12-08T06:30:27.092Z,4.00
2018-12-08T06:31:26.980Z,4.00
2018-12-08T06:32:27.130Z,4.00
2018-12-08T06:33:26.770Z,8.00
2018-12-08T06:34:26.669Z,4.00
2018-12-08T06:35:26.557Z,8.00
2018-12-08T06:36:26.457Z,8.00
2018-12-08T06:37:26.346Z,8.00
2018-12-08T06:38:26.248Z,12.00
2018-12-08T06:39:26.136Z,16.00
2018-12-08T06:40:29.219Z,16.00
2018-12-08T06:41:25.924Z,20.00
2018-12-08T06:42:25.811Z,24.00
2018-12-08T06:43:25.711Z,24.00
2018-12-08T06:44:25.604Z,28.00
2018-12-08T06:45:25.503Z,32.00
2018-12-08T06:46:25.389Z,36.00
2018-12-08T06:47:25.290Z,44.00
2018-12-08T06:48:25.178Z,52.00
2018-12-08T06:49:25.080Z,56.00
2018-12-08T06:50:24.966Z,60.00
2018-12-08T06:51:24.855Z,68.00
2018-12-08T06:52:24.757Z,76.00
2018-12-08T06:53:24.642Z,84.00
2018-12-08T06:54:24.543Z,92.00
2018-12-08T06:55:24.431Z,100.00
2018-12-08T06:56:24.332Z,112.00
2018-12-08T06:57:24.220Z,124.00
2018-12-08T06:58:24.120Z,136.00
2018-12-08T06:59:24.009Z,148.00
2018-12-08T07:00:23.909Z,160.00
2018-12-08T07:01:23.809Z,180.00
2018-12-08T07:02:23.988Z,204.00
2018-12-08T07:03:23.587Z,216.00
2018-12-08T07:04:23.473Z,220.00
2018-12-08T07:05:23.373Z,228.00
2018-12-08T07:06:23.266Z,256.00
2018-12-08T07:07:23.153Z,280.00
2018-12-08T07:08:23.051Z,300.00
2018-12-08T07:09:22.941Z,312.00
2018-12-08T07:10:22.841Z,340.00
2018-12-08T07:11:22.727Z,356.00
2018-12-08T07:12:22.628Z,356.00
2018-12-08T07:13:22.516Z,408.00
2018-12-08T07:14:22.413Z,492.00
2018-12-08T07:15:22.304Z,564.00
2018-12-08T07:16:22.194Z,672.00
2018-12-08T07:17:22.095Z,800.00
2018-12-08T07:18:21.981Z,924.00
2018-12-08T07:19:21.882Z,1028.00
2018-12-08T07:20:21.771Z,1108.00
2018-12-08T07:21:21.671Z,1168.00
2018-12-08T07:22:21.560Z,1192.00
2018-12-08T07:23:21.465Z,1168.00
2018-12-08T07:24:21.350Z,1120.00
2018-12-08T07:25:21.236Z,1072.00
2018-12-08T07:26:21.135Z,1040.00
2018-12-08T07:27:21.025Z,1012.00
2018-12-08T07:28:21.354Z,980.00
2018-12-08T07:29:20.813Z,944.00
2018-12-08T07:30:20.714Z,924.00
2018-12-08T07:31:20.601Z,912.00
2018-12-08T07:32:20.503Z,896.00
2018-12-08T07:33:20.390Z,896.00
2018-12-08T07:34:20.290Z,932.00
2018-12-08T07:35:20.181Z,972.00
2018-12-08T07:36:20.069Z,1004.00
2018-12-08T07:37:19.968Z,1016.00
2018-12-08T07:38:19.856Z,1012.00
2018-12-08T07:39:19.749Z,1000.00
2018-12-08T07:40:19.647Z,988.00
2018-12-08T07:41:19.544Z,976.00
2018-12-08T07:42:19.433Z,976.00
2018-12-08T07:43:19.333Z,1000.00
2018-12-08T07:44:19.221Z,1060.00
2018-12-08T07:45:19.122Z,1076.00
2018-12-08T07:46:19.011Z,1072.00
2018-12-08T07:47:18.911Z,1092.00
2018-12-08T07:48:18.798Z,1112.00
2018-12-08T07:49:18.698Z,1044.00
2018-12-08T07:50:18.589Z,1192.00
2018-12-08T07:51:18.487Z,1152.00
2018-12-08T07:52:18.376Z,1028.00
2018-12-08T07:53:18.267Z,1096.00
2018-12-08T07:54:18.165Z,1192.00
2018-12-08T07:55:18.052Z,1344.00
2018-12-08T07:56:17.952Z,1448.00
2018-12-08T07:57:18.141Z,1552.00
2018-12-08T07:58:17.747Z,1800.00
2018-12-08T07:59:17.629Z,1916.00
2018-12-08T08:00:17.529Z,1984.00
2018-12-08T08:01:17.423Z,2188.00
2018-12-08T08:02:17.319Z,2536.00
2018-12-08T08:03:17.208Z,3120.00
2018-12-08T08:04:17.107Z,3404.00
2018-12-08T08:05:16.996Z,4064.00
2018-12-08T08:06:16.896Z,4656.00
2018-12-08T08:07:16.787Z,5152.00
2018-12-08T08:08:16.684Z,5272.00
2018-12-08T08:09:16.573Z,5076.00
2018-12-08T08:10:16.477Z,4444.00
2018-12-08T08:11:16.361Z,4232.00
2018-12-08T08:12:16.261Z,3944.00
2018-12-08T08:13:16.151Z,3528.00
2018-12-08T08:14:16.126Z,3260.00
2018-12-08T08:15:15.939Z,2864.00
2018-12-08T08:16:15.839Z,2556.00
2018-12-08T08:17:15.727Z,2240.00
2018-12-08T08:18:15.628Z,1712.00
2018-12-08T08:19:15.515Z,1288.00
2018-12-08T08:20:15.415Z,1108.00
2018-12-08T08:21:15.305Z,1060.00
2018-12-08T08:22:15.195Z,1076.00
2018-12-08T08:23:15.092Z,1072.00
2018-12-08T08:24:14.993Z,1140.00
2018-12-08T08:25:14.882Z,1304.00
2018-12-08T08:26:14.782Z,1572.00
2018-12-08T08:27:14.669Z,1872.00
2018-12-08T08:28:14.570Z,2408.00
2018-12-08T08:29:14.459Z,2984.00
2018-12-08T08:30:14.368Z,3284.00
2018-12-08T08:31:14.248Z,3108.00
2018-12-08T08:32:14.147Z,2504.00
2018-12-08T08:33:14.036Z,1868.00
2018-12-08T08:34:13.936Z,1484.00
2018-12-08T08:35:13.825Z,1240.00
2018-12-08T08:36:13.727Z,1156.00
2018-12-08T08:37:13.613Z,1160.00
2018-12-08T08:38:13.514Z,1176.00
2018-12-08T08:39:13.415Z,1188.00
2018-12-08T08:40:13.303Z,1220.00
2018-12-08T08:41:13.202Z,1316.00
2018-12-08T08:42:13.092Z,1428.00
2018-12-08T08:43:12.992Z,1540.00
2018-12-08T08:44:12.879Z,1664.00
2018-12-08T08:45:12.779Z,1828.00
2018-12-08T08:46:12.669Z,2036.00
2018-12-08T08:47:12.569Z,2260.00
2018-12-08T08:48:12.457Z,2504.00
2018-12-08T08:49:12.357Z,2760.00
2018-12-08T08:50:12.246Z,3088.00
2018-12-08T08:51:12.148Z,3456.00
2018-12-08T08:52:12.034Z,3780.00
2018-12-08T08:53:11.934Z,4176.00
2018-12-08T08:54:11.823Z,4788.00
2018-12-08T08:55:11.726Z,5760.00
2018-12-08T08:56:11.624Z,6360.00
2018-12-08T08:57:11.764Z,6820.00
2018-12-08T08:58:11.403Z,6912.00
2018-12-08T08:59:11.301Z,6448.00
2018-12-08T09:00:11.189Z,5900.00
2018-12-08T09:01:11.089Z,5444.00
2018-12-08T09:02:10.978Z,4960.00
2018-12-08T09:03:10.878Z,4608.00
2018-12-08T09:04:10.779Z,4832.00
2018-12-08T09:05:10.666Z,4880.00
2018-12-08T09:06:10.567Z,4856.00
2018-12-08T09:07:10.456Z,5048.00
2018-12-08T09:08:10.356Z,5000.00
2018-12-08T09:09:10.256Z,4660.00
2018-12-08T09:10:10.168Z,4156.00
2018-12-08T09:11:10.032Z,3776.00
2018-12-08T09:12:09.935Z,3256.00
2018-12-08T09:13:09.821Z,2768.00
2018-12-08T09:14:13.218Z,2960.00
2018-12-08T09:15:09.635Z,2960.00
2018-12-08T09:16:09.513Z,4568.00
2018-12-08T09:17:09.411Z,5568.00
2018-12-08T09:18:09.298Z,4744.00
2018-12-08T09:19:09.199Z,4004.00
2018-12-08T09:20:09.088Z,4372.00
2018-12-08T09:21:08.989Z,4840.00
2018-12-08T09:22:08.877Z,4948.00
2018-12-08T09:23:08.777Z,4912.00
2018-12-08T09:24:08.677Z,5080.00
2018-12-08T09:25:08.566Z,5204.00
2018-12-08T09:26:08.467Z,5256.00
2018-12-08T09:27:08.353Z,5144.00
2018-12-08T09:28:08.257Z,4764.00
2018-12-08T09:29:08.144Z,4768.00
2018-12-08T09:30:08.046Z,5292.00
2018-12-08T09:31:07.947Z,5660.00
2018-12-08T09:32:08.182Z,6208.00
2018-12-08T09:33:07.732Z,5864.00
2018-12-08T09:34:07.621Z,5080.00
2018-12-08T09:35:07.522Z,5096.00
2018-12-08T09:36:07.410Z,5396.00
2018-12-08T09:37:07.309Z,4968.00
2018-12-08T09:38:07.210Z,4972.00
2018-12-08T09:39:07.098Z,4248.00
2018-12-08T09:40:07.000Z,4252.00
2018-12-08T09:41:06.890Z,3704.00
2018-12-08T09:42:07.037Z,3352.00
2018-12-08T09:43:06.688Z,3428.00
2018-12-08T09:44:06.578Z,3024.00
2018-12-08T09:45:06.477Z,3120.00
2018-12-08T09:46:06.368Z,4180.00
2018-12-08T09:47:06.261Z,3524.00
2018-12-08T09:48:06.154Z,3152.00
2018-12-08T09:49:06.055Z,3960.00
2018-12-08T09:50:05.957Z,4848.00
2018-12-08T09:51:05.842Z,5544.00
2018-12-08T09:52:05.743Z,5264.00
2018-12-08T09:53:05.633Z,4440.00
2018-12-08T09:54:05.533Z,5168.00
2018-12-08T09:55:05.434Z,5444.00
2018-12-08T09:56:05.320Z,5504.00
2018-12-08T09:57:05.221Z,6248.00
2018-12-08T09:58:05.110Z,5940.00
2018-12-08T09:59:05.009Z,5208.00
2018-12-08T10:00:04.899Z,4584.00
2018-12-08T10:01:04.798Z,4396.00
2018-12-08T10:02:04.699Z,3996.00
2018-12-08T10:03:04.587Z,4640.00
2018-12-08T10:04:04.488Z,4916.00
2018-12-08T10:05:04.376Z,4576.00
2018-12-08T10:06:04.276Z,4444.00
2018-12-08T10:07:04.179Z,4376.00
2018-12-08T10:08:04.066Z,4548.00
2018-12-08T10:09:03.966Z,5688.00
2018-12-08T10:10:03.859Z,5088.00
2018-12-08T10:11:03.754Z,4388.00
2018-12-08T10:12:03.655Z,4256.00
2018-12-08T10:13:03.543Z,3456.00
2018-12-08T10:14:03.446Z,3108.00
2018-12-08T10:15:03.335Z,2928.00
2018-12-08T10:16:03.232Z,2464.00
2018-12-08T10:17:03.133Z,2572.00
2018-12-08T10:18:03.026Z,2488.00
2018-12-08T10:19:02.923Z,2956.00
2018-12-08T10:20:02.822Z,3140.00
2018-12-08T10:21:02.710Z,3352.00
2018-12-08T10:22:02.602Z,4352.00
2018-12-08T10:23:02.499Z,4516.00
2018-12-08T10:24:02.401Z,5056.00
2018-12-08T10:25:02.293Z,4712.00
2018-12-08T10:26:02.188Z,3696.00
2018-12-08T10:27:02.089Z,3968.00
2018-12-08T10:28:01.977Z,4684.00
2018-12-08T10:29:01.877Z,5708.00
2018-12-08T10:30:01.787Z,5056.00
2018-12-08T10:31:01.668Z,4580.00
2018-12-08T10:32:01.566Z,3872.00
2018-12-08T10:33:01.455Z,3344.00
2018-12-08T10:34:01.356Z,2872.00
2018-12-08T10:35:01.258Z,2556.00
2018-12-08T10:36:01.143Z,3724.00
2018-12-08T10:37:01.044Z,3140.00
2018-12-08T10:38:00.933Z,2456.00
2018-12-08T10:39:00.835Z,3728.00
2018-12-08T10:40:00.735Z,5540.00
2018-12-08T10:41:00.623Z,6236.00
2018-12-08T10:42:00.522Z,7128.00
2018-12-08T10:43:00.422Z,5636.00
2018-12-08T10:44:00.312Z,4456.00
2018-12-08T10:45:00.214Z,2980.00
2018-12-08T10:46:00.100Z,2676.00
2018-12-08T10:46:59.999Z,2700.00
2018-12-08T10:47:59.904Z,3088.00
2018-12-08T10:48:59.789Z,4196.00
2018-12-08T10:49:59.689Z,3816.00
2018-12-08T10:50:59.578Z,3284.00
2018-12-08T10:51:59.477Z,3212.00
2018-12-08T10:52:59.381Z,2884.00
2018-12-08T10:53:59.269Z,3280.00
2018-12-08T10:54:59.168Z,3368.00
2018-12-08T10:55:59.068Z,3072.00
2018-12-08T10:56:58.955Z,2220.00
2018-12-08T10:57:58.855Z,1984.00
2018-12-08T10:58:58.745Z,1624.00
2018-12-08T10:59:58.645Z,1536.00
2018-12-08T11:00:58.545Z,1968.00
2018-12-08T11:01:58.433Z,2012.00
2018-12-08T11:02:58.333Z,2272.00
2018-12-08T11:03:58.234Z,1992.00
2018-12-08T11:04:58.123Z,2264.00
2018-12-08T11:05:58.023Z,2044.00
2018-12-08T11:06:57.911Z,2324.00
2018-12-08T11:07:57.811Z,2548.00
2018-12-08T11:08:57.711Z,2536.00
2018-12-08T11:09:57.600Z,2504.00
2018-12-08T11:10:57.502Z,2924.00
2018-12-08T11:11:57.389Z,2656.00
2018-12-08T11:12:57.289Z,2956.00
2018-12-08T11:13:57.189Z,2892.00
2018-12-08T11:15:00.584Z,2560.00
2018-12-08T11:15:56.979Z,2580.00
2018-12-08T11:16:56.867Z,2124.00
2018-12-08T11:17:56.780Z,2136.00
2018-12-08T11:18:56.667Z,1856.00
2018-12-08T11:19:56.556Z,1720.00
2018-12-08T11:20:56.456Z,1836.00
2018-12-08T11:21:56.351Z,2204.00
2018-12-08T11:22:56.244Z,2788.00
2018-12-08T11:23:56.146Z,3228.00
2018-12-08T11:24:56.050Z,3328.00
2018-12-08T11:25:55.935Z,3296.00
2018-12-08T11:26:55.835Z,3776.00
2018-12-08T11:27:55.722Z,3824.00
2018-12-08T11:28:55.623Z,3648.00
2018-12-08T11:29:55.513Z,4420.00
2018-12-08T11:30:55.412Z,3900.00
2018-12-08T11:31:55.312Z,4256.00
2018-12-08T11:32:55.200Z,4108.00
2018-12-08T11:33:55.101Z,4472.00
2018-12-08T11:34:55.002Z,4480.00
2018-12-08T11:35:54.891Z,4472.00
2018-12-08T11:36:54.794Z,3672.00
2018-12-08T11:37:54.678Z,3476.00
2018-12-08T11:38:54.578Z,3632.00
2018-12-08T11:39:54.479Z,4480.00
2018-12-08T11:40:54.367Z,5356.00
2018-12-08T11:41:54.268Z,5228.00
2018-12-08T11:42:54.168Z,4756.00
2018-12-08T11:43:54.059Z,4212.00
2018-12-08T11:44:53.956Z,3060.00
2018-12-08T11:45:53.859Z,3276.00
2018-12-08T11:46:53.746Z,3144.00
2018-12-08T11:47:53.647Z,2984.00
2018-12-08T11:48:53.534Z,3020.00
2018-12-08T11:49:53.439Z,3116.00
2018-12-08T11:50:53.335Z,2888.00
2018-12-08T11:51:53.225Z,3288.00
2018-12-08T11:52:53.135Z,3868.00
2018-12-08T11:53:53.024Z,4588.00
2018-12-08T11:54:52.912Z,4468.00
2018-12-08T11:55:52.815Z,3604.00
2018-12-08T11:56:52.703Z,3944.00
2018-12-08T11:57:52.602Z,3856.00
2018-12-08T11:58:52.504Z,4424.00
2018-12-08T11:59:52.390Z,3696.00
2018-12-08T12:00:52.290Z,3052.00
2018-12-08T12:01:52.191Z,3128.00
2018-12-08T12:02:52.081Z,2456.00
2018-12-08T12:03:51.981Z,1780.00
2018-12-08T12:04:51.881Z,2032.00
2018-12-08T12:05:51.770Z,2000.00
2018-12-08T12:06:51.669Z,1804.00
2018-12-08T12:07:51.571Z,2308.00
2018-12-08T12:08:51.459Z,3064.00
2018-12-08T12:09:51.359Z,3544.00
2018-12-08T12:10:51.248Z,3132.00
2018-12-08T12:11:51.147Z,2284.00
2018-12-08T12:12:51.048Z,1948.00
2018-12-08T12:13:50.964Z,1844.00
2018-12-08T12:14:50.837Z,2488.00
2018-12-08T12:15:50.738Z,2784.00
2018-12-08T12:16:50.624Z,3456.00
2018-12-08T12:17:50.527Z,3592.00
2018-12-08T12:18:50.425Z,4016.00
2018-12-08T12:19:50.315Z,3168.00
2018-12-08T12:20:50.216Z,3284.00
2018-12-08T12:21:50.115Z,2540.00
2018-12-08T12:22:50.003Z,2744.00
2018-12-08T12:23:49.903Z,2688.00
2018-12-08T12:24:49.804Z,2620.00
2018-12-08T12:25:49.693Z,2656.00
2018-12-08T12:26:49.593Z,2940.00
2018-12-08T12:27:49.482Z,3036.00
2018-12-08T12:28:49.381Z,3540.00
2018-12-08T12:29:49.282Z,3192.00
2018-12-08T12:30:49.171Z,3376.00
2018-12-08T12:31:49.072Z,3556.00
2018-12-08T12:32:48.972Z,3288.00
2018-12-08T12:33:48.859Z,3256.00
2018-12-08T12:34:48.761Z,2972.00
2018-12-08T12:35:48.673Z,3024.00
2018-12-08T12:36:48.548Z,3284.00
2018-12-08T12:37:48.449Z,3168.00
2018-12-08T12:38:48.350Z,3028.00
2018-12-08T12:39:48.237Z,3124.00
2018-12-08T12:40:48.138Z,2244.00
2018-12-08T12:41:48.040Z,2464.00
2018-12-08T12:42:47.928Z,2256.00